createdAt,value
2023-02-07T00:00:53.414Z,-6.97
2023-02-07T00:03:09.907Z,-7.02
2023-02-07T00:05:26.756Z,-6.99
2023-02-07T00:07:45.461Z,-7.00
2023-02-07T00:10:04.237Z,-7.06
2023-02-07T00:12:22.510Z,-7.13
2023-02-07T00:14:39.843Z,-7.19
2023-02-07T00:16:57.958Z,-7.15
2023-02-07T00:19:25.734Z,-7.13
2023-02-07T00:21:37.776Z,-7.15
2023-02-07T00:23:55.728Z,-7.06
2023-02-07T00:26:12.540Z,-7.03
2023-02-07T00:28:29.535Z,-7.02
2023-02-07T00:30:47.752Z,-7.13
2023-02-07T00:33:02.157Z,-7.26
2023-02-07T00:35:17.759Z,-7.37
2023-02-07T00:37:35.455Z,-7.44
2023-02-07T00:39:54.021Z,-7.44
2023-02-07T00:42:14.024Z,-7.39
2023-02-07T00:44:33.419Z,-7.38
2023-02-07T00:46:53.267Z,-7.41
2023-02-07T00:49:12.190Z,-7.37
2023-02-07T00:51:32.290Z,-7.34
2023-02-07T00:53:53.153Z,-7.41
2023-02-07T00:56:10.795Z,-7.51
2023-02-07T00:58:28.973Z,-7.51
2023-02-07T01:00:43.309Z,-7.52
2023-02-07T01:02:59.312Z,-7.54
2023-02-07T01:05:17.230Z,-7.51
2023-02-07T01:07:35.052Z,-7.44
2023-02-07T01:09:53.139Z,-7.44
2023-02-07T01:12:13.726Z,-7.48
2023-02-07T01:14:34.373Z,-7.52
2023-02-07T01:16:55.087Z,-7.62
2023-02-07T01:19:13.925Z,-7.63
2023-02-07T01:21:31.985Z,-7.56
2023-02-07T01:23:51.860Z,-7.58
2023-02-07T01:26:09.825Z,-7.52
2023-02-07T01:28:26.714Z,-7.52
2023-02-07T01:30:48.602Z,-7.60
2023-02-07T01:33:04.570Z,-7.52
2023-02-07T01:35:23.348Z,-7.52
2023-02-07T01:37:41.345Z,-7.63
2023-02-07T01:40:02.412Z,-7.63
2023-02-07T01:42:18.310Z,-7.66
2023-02-07T01:44:35.447Z,-7.66
2023-02-07T01:46:53.776Z,-7.72
2023-02-07T01:49:13.900Z,-7.81
2023-02-07T01:51:31.480Z,-7.80
2023-02-07T01:53:47.119Z,-7.77
2023-02-07T01:56:08.097Z,-7.83
2023-02-07T01:58:26.581Z,-7.87
2023-02-07T02:00:44.450Z,-7.80
2023-02-07T02:03:02.153Z,-7.63
2023-02-07T02:05:20.493Z,-7.66
2023-02-07T02:07:38.265Z,-7.68
2023-02-07T02:09:56.716Z,-7.81
2023-02-07T02:12:17.813Z,-7.81
2023-02-07T02:14:35.044Z,-7.86
2023-02-07T02:16:52.671Z,-7.84
2023-02-07T02:19:11.924Z,-7.81
2023-02-07T02:21:29.938Z,-7.80
2023-02-07T02:23:46.601Z,-7.80
2023-02-07T02:26:04.721Z,-7.77
2023-02-07T02:28:22.988Z,-7.72
2023-02-07T02:30:40.952Z,-7.68
2023-02-07T02:32:57.877Z,-7.65
2023-02-07T02:35:13.096Z,-7.58
2023-02-07T02:37:31.239Z,-7.48
2023-02-07T02:39:51.695Z,-7.38
2023-02-07T02:42:06.454Z,-7.27
2023-02-07T02:44:23.787Z,-7.21
2023-02-07T02:46:41.698Z,-7.16
2023-02-07T02:49:02.697Z,-7.24
2023-02-07T02:51:23.769Z,-7.24
2023-02-07T02:53:41.890Z,-7.21
2023-02-07T02:55:56.597Z,-7.12
2023-02-07T02:58:14.576Z,-7.09
2023-02-07T03:00:35.288Z,-7.10
2023-02-07T03:02:53.403Z,-7.00
2023-02-07T03:05:11.969Z,-6.94
2023-02-07T03:07:29.554Z,-6.92
2023-02-07T03:09:45.150Z,-6.97
2023-02-07T03:12:03.405Z,-6.97
2023-02-07T03:14:21.266Z,-6.90
2023-02-07T03:16:40.264Z,-6.92
2023-02-07T03:19:01.172Z,-6.87
2023-02-07T03:21:20.569Z,-6.82
2023-02-07T03:23:39.092Z,-6.82
2023-02-07T03:25:57.103Z,-6.84
2023-02-07T03:28:17.721Z,-6.91
2023-02-07T03:30:35.875Z,-6.90
2023-02-07T03:32:53.840Z,-6.82
2023-02-07T03:35:09.538Z,-6.81
2023-02-07T03:37:27.722Z,-6.85
2023-02-07T03:39:45.892Z,-6.84
2023-02-07T03:42:01.243Z,-6.77
2023-02-07T03:44:21.769Z,-6.81
2023-02-07T03:46:40.764Z,-6.85
2023-02-07T03:49:00.465Z,-6.95
2023-02-07T03:51:18.558Z,-7.06
2023-02-07T03:53:37.550Z,-7.12
2023-02-07T03:55:58.576Z,-7.20
2023-02-07T03:58:15.493Z,-7.20
2023-02-07T04:00:33.594Z,-7.20
2023-02-07T04:02:51.611Z,-7.30
2023-02-07T04:05:09.908Z,-7.33
2023-02-07T04:07:27.962Z,-7.33
2023-02-07T04:09:48.307Z,-7.38
2023-02-07T04:12:03.919Z,-7.39
2023-02-07T04:14:25.417Z,-7.44
2023-02-07T04:16:39.345Z,-7.44
2023-02-07T04:18:57.372Z,-7.59
2023-02-07T04:21:13.396Z,-7.60
2023-02-07T04:23:29.964Z,-7.59
2023-02-07T04:25:48.128Z,-7.65
2023-02-07T04:28:09.855Z,-7.47
2023-02-07T04:30:26.974Z,-7.39
2023-02-07T04:32:43.686Z,-7.37
2023-02-07T04:35:01.771Z,-7.33
2023-02-07T04:37:19.838Z,-7.33
2023-02-07T04:39:37.904Z,-7.42
2023-02-07T04:41:55.846Z,-7.49
2023-02-07T04:44:11.331Z,-7.48
2023-02-07T04:46:32.534Z,-7.52
2023-02-07T04:48:53.897Z,-7.62
2023-02-07T04:51:10.687Z,-7.74
2023-02-07T04:53:28.747Z,-7.74
2023-02-07T04:55:46.981Z,-7.76
2023-02-07T04:58:05.718Z,-7.72
2023-02-07T05:00:25.472Z,-7.63
2023-02-07T05:02:46.437Z,-7.65
2023-02-07T05:05:02.706Z,-7.69
2023-02-07T05:07:20.804Z,-7.72
2023-02-07T05:09:38.899Z,-7.68
2023-02-07T05:11:56.982Z,-7.59
2023-02-07T05:14:15.065Z,-7.56
2023-02-07T05:16:35.707Z,-7.70
2023-02-07T05:18:53.210Z,-7.76
2023-02-07T05:21:09.315Z,-7.77
2023-02-07T05:23:26.575Z,-7.87
2023-02-07T05:25:44.322Z,-7.87
2023-02-07T05:28:00.692Z,-7.94
2023-02-07T05:30:16.448Z,-7.97
2023-02-07T05:32:36.840Z,-8.06
2023-02-07T05:34:57.526Z,-7.99
2023-02-07T05:37:15.559Z,-7.95
2023-02-07T05:39:33.767Z,-7.95
2023-02-07T05:41:51.788Z,-8.03
2023-02-07T05:44:07.431Z,-8.13
2023-02-07T05:46:24.081Z,-8.17
2023-02-07T05:48:39.000Z,-8.17
2023-02-07T05:50:57.312Z,-8.16
2023-02-07T05:53:12.984Z,-8.14
2023-02-07T05:55:30.844Z,-8.14
2023-02-07T05:57:49.883Z,-8.20
2023-02-07T06:00:06.998Z,-8.27
2023-02-07T06:02:22.686Z,-8.35
2023-02-07T06:04:38.214Z,-8.48
2023-02-07T06:06:57.842Z,-8.53
2023-02-07T06:09:10.863Z,-8.52
2023-02-07T06:11:30.917Z,-8.45
2023-02-07T06:13:46.212Z,-8.39
2023-02-07T06:16:08.506Z,-8.37
2023-02-07T06:18:23.594Z,-8.41
2023-02-07T06:20:40.871Z,-8.42
2023-02-07T06:22:58.448Z,-8.42
2023-02-07T06:25:15.804Z,-8.48
2023-02-07T06:27:30.673Z,-8.58
2023-02-07T06:29:46.241Z,-8.47
2023-02-07T06:32:04.352Z,-8.42
2023-02-07T06:34:22.493Z,-8.42
2023-02-07T06:36:37.134Z,-8.48
2023-02-07T06:38:50.599Z,-8.50
2023-02-07T06:41:08.837Z,-8.52
2023-02-07T06:43:25.138Z,-8.52
2023-02-07T06:45:43.191Z,-8.45
2023-02-07T06:47:58.061Z,-8.42
2023-02-07T06:50:14.492Z,-8.39
2023-02-07T06:52:31.684Z,-8.41
2023-02-07T06:54:50.613Z,-8.38
2023-02-07T06:57:06.416Z,-8.48
2023-02-07T06:59:23.530Z,-8.48
2023-02-07T07:01:40.235Z,-8.42
2023-02-07T07:03:58.290Z,-8.38
2023-02-07T07:06:16.400Z,-8.41
2023-02-07T07:08:31.896Z,-8.41
2023-02-07T07:10:51.748Z,-8.41
2023-02-07T07:13:06.997Z,-8.39
2023-02-07T07:15:24.214Z,-8.38
2023-02-07T07:17:38.886Z,-8.35
2023-02-07T07:19:56.859Z,-8.26
2023-02-07T07:22:18.699Z,-8.24
2023-02-07T07:24:33.150Z,-8.17
2023-02-07T07:26:54.591Z,-8.14
2023-02-07T07:29:08.394Z,-8.06
2023-02-07T07:31:28.972Z,-7.91
2023-02-07T07:33:50.140Z,-7.91
2023-02-07T07:36:09.788Z,-7.97
2023-02-07T07:38:23.166Z,-7.94
2023-02-07T07:40:40.202Z,-7.80
2023-02-07T07:42:55.447Z,-7.72
2023-02-07T07:45:11.103Z,-7.65
2023-02-07T07:47:29.372Z,-7.56
2023-02-07T07:49:44.729Z,-7.60
2023-02-07T07:52:00.430Z,-7.51
2023-02-07T07:54:18.390Z,-7.27
2023-02-07T07:56:34.139Z,-7.00
2023-02-07T07:58:52.248Z,-6.84
2023-02-07T08:01:13.043Z,-6.73
2023-02-07T08:03:26.445Z,-6.64
2023-02-07T08:05:47.906Z,-6.67
2023-02-07T08:08:03.496Z,-6.64
2023-02-07T08:10:21.693Z,-6.63
2023-02-07T08:12:36.154Z,-6.64
2023-02-07T08:14:54.424Z,-6.52
2023-02-07T08:17:13.561Z,-6.37
2023-02-07T08:19:31.445Z,-6.19
2023-02-07T08:21:49.534Z,-6.02
2023-02-07T08:24:08.617Z,-5.92
2023-02-07T08:26:27.732Z,-5.76
2023-02-07T08:28:45.903Z,-5.56
2023-02-07T08:31:03.906Z,-5.41
2023-02-07T08:33:19.491Z,-5.27
2023-02-07T08:35:35.414Z,-5.17
2023-02-07T08:37:51.644Z,-5.08
2023-02-07T08:40:09.887Z,-5.01
2023-02-07T08:42:25.565Z,-4.93
2023-02-07T08:44:44.412Z,-4.86
2023-02-07T08:47:02.505Z,-4.82
2023-02-07T08:49:20.650Z,-4.76
2023-02-07T08:51:38.696Z,-4.55
2023-02-07T08:53:54.380Z,-4.37
2023-02-07T08:56:10.983Z,-4.12
2023-02-07T08:58:26.464Z,-3.96
2023-02-07T09:00:42.606Z,-3.89
2023-02-07T09:02:58.589Z,-3.78
2023-02-07T09:05:14.200Z,-3.65
2023-02-07T09:07:29.835Z,-3.60
2023-02-07T09:09:47.904Z,-3.49
2023-02-07T09:12:06.032Z,-3.39
2023-02-07T09:14:24.091Z,-3.32
2023-02-07T09:16:37.207Z,-3.26
2023-02-07T09:18:50.388Z,-3.18
2023-02-07T09:21:05.864Z,-3.17
2023-02-07T09:23:23.998Z,-3.14
2023-02-07T09:25:41.895Z,-3.02
2023-02-07T09:27:53.370Z,-2.93
2023-02-07T09:30:11.408Z,-2.89
2023-02-07T09:32:26.012Z,-2.78
2023-02-07T09:34:44.122Z,-2.78
2023-02-07T09:37:02.362Z,-2.71
2023-02-07T09:39:22.779Z,-2.61
2023-02-07T09:41:43.387Z,-2.56
2023-02-07T09:44:01.631Z,-2.45
2023-02-07T09:46:19.660Z,-2.35
2023-02-07T09:48:35.209Z,-2.33
2023-02-07T09:50:48.913Z,-2.21
2023-02-07T09:53:07.031Z,-2.11
2023-02-07T09:55:25.092Z,-2.05
2023-02-07T09:57:43.184Z,-1.98
2023-02-07T10:00:01.276Z,-1.95
2023-02-07T10:02:22.118Z,-1.78
2023-02-07T10:04:37.521Z,-1.66
2023-02-07T10:06:53.050Z,-1.56
2023-02-07T10:09:11.250Z,-1.49
2023-02-07T10:11:29.347Z,-1.42
2023-02-07T10:13:45.101Z,-1.31
2023-02-07T10:15:59.654Z,-1.21
2023-02-07T10:18:13.293Z,-0.99
2023-02-07T10:20:31.483Z,-0.86
2023-02-07T10:22:46.968Z,-0.78
2023-02-07T10:25:02.662Z,-0.59
2023-02-07T10:27:20.699Z,-0.48
2023-02-07T10:29:41.295Z,-0.29
2023-02-07T10:31:56.884Z,-0.19
2023-02-07T10:34:17.496Z,-0.09
2023-02-07T10:36:38.086Z,0.15
2023-02-07T10:39:03.249Z,0.36
2023-02-07T10:39:53.637Z,0.39
2023-02-07T10:57:54.132Z,0.61
2023-02-07T11:00:04.880Z,1.00
2023-02-07T11:02:23.222Z,1.22
2023-02-07T11:04:47.960Z,1.25
2023-02-07T11:08:44.783Z,0.97
2023-02-07T11:14:52.117Z,0.70
2023-02-07T13:23:06.970Z,1.03
2023-02-07T13:46:41.264Z,0.76
2023-02-07T14:15:11.624Z,0.68
2023-02-07T14:29:06.454Z,0.70
2023-02-07T14:55:30.871Z,0.31
2023-02-07T15:01:40.927Z,0.21
2023-02-07T15:04:51.988Z,0.30
2023-02-07T15:07:16.124Z,0.39
2023-02-07T15:09:37.345Z,0.39
2023-02-07T15:12:04.804Z,0.42
2023-02-07T15:14:28.068Z,0.34
2023-02-07T15:17:12.256Z,0.24
2023-02-07T15:21:46.406Z,-0.04
2023-02-07T15:24:07.315Z,-0.16
2023-02-07T15:26:51.911Z,-0.23
2023-02-07T15:29:19.197Z,-0.30
2023-02-07T15:31:41.147Z,-0.31
2023-02-07T15:34:04.366Z,-0.34
2023-02-07T15:36:24.737Z,-0.51
2023-02-07T15:39:31.663Z,-0.63
2023-02-07T15:41:48.580Z,-0.81
2023-02-07T15:44:05.487Z,-0.97
2023-02-07T15:46:23.714Z,-1.15
2023-02-07T15:49:14.959Z,-1.17
2023-02-07T15:51:35.621Z,-1.21
2023-02-07T15:53:59.328Z,-1.21
2023-02-07T15:56:32.599Z,-1.23
2023-02-07T15:59:31.706Z,-1.30
2023-02-07T16:01:51.539Z,-1.45
2023-02-07T16:04:10.625Z,-1.48
2023-02-07T16:06:39.829Z,-1.54
2023-02-07T16:09:20.735Z,-1.62
2023-02-07T16:11:37.291Z,-1.62
2023-02-07T16:13:56.537Z,-1.72
2023-02-07T16:16:09.541Z,-1.87
2023-02-07T16:18:29.728Z,-2.02
2023-02-07T16:20:47.986Z,-2.00
2023-02-07T16:23:08.834Z,-2.11
2023-02-07T16:25:24.378Z,-2.35
2023-02-07T16:27:45.107Z,-2.47
2023-02-07T16:30:05.246Z,-2.45
2023-02-07T16:32:23.779Z,-2.56
2023-02-07T16:34:53.750Z,-2.51
2023-02-07T16:35:41.299Z,-2.53
2023-02-07T16:37:58.448Z,-2.68
2023-02-07T16:40:17.070Z,-2.71
2023-02-07T16:42:38.759Z,-2.76
2023-02-07T16:44:53.575Z,-2.82
2023-02-07T16:47:10.249Z,-2.87
2023-02-07T16:49:28.147Z,-2.90
2023-02-07T16:51:48.497Z,-2.99
2023-02-07T16:54:07.045Z,-3.05
2023-02-07T16:56:22.476Z,-3.08
2023-02-07T16:58:40.639Z,-3.14
2023-02-07T17:00:58.757Z,-3.23
2023-02-07T17:03:14.975Z,-3.22
2023-02-07T17:05:34.787Z,-3.25
2023-02-07T17:07:55.480Z,-3.28
2023-02-07T17:10:13.551Z,-3.32
2023-02-07T17:12:34.033Z,-3.38
2023-02-07T17:14:48.649Z,-3.44
2023-02-07T17:17:04.348Z,-3.47
2023-02-07T17:19:19.769Z,-3.50
2023-02-07T17:21:37.875Z,-3.53
2023-02-07T17:23:53.573Z,-3.53
2023-02-07T17:26:11.560Z,-3.56
2023-02-07T17:28:29.619Z,-3.61
2023-02-07T17:30:47.751Z,-3.65
2023-02-07T17:33:05.822Z,-3.64
2023-02-07T17:35:23.931Z,-3.68
2023-02-07T17:37:42.226Z,-3.71
2023-02-07T17:39:57.772Z,-3.68
2023-02-07T17:42:15.907Z,-3.71
2023-02-07T17:44:36.857Z,-3.76
2023-02-07T17:46:51.884Z,-3.81
2023-02-07T17:49:12.788Z,-3.80
2023-02-07T17:51:31.104Z,-3.75
2023-02-07T17:53:49.036Z,-3.70
2023-02-07T17:56:09.771Z,-3.60
2023-02-07T17:58:25.182Z,-3.50
2023-02-07T18:00:42.106Z,-3.41
2023-02-07T18:03:00.010Z,-3.29
2023-02-07T18:05:20.700Z,-3.26
2023-02-07T18:07:38.659Z,-3.26
2023-02-07T18:09:58.839Z,-3.18
2023-02-07T18:12:17.151Z,-3.10
2023-02-07T18:14:33.584Z,-3.08
2023-02-07T18:16:52.952Z,-3.14
2023-02-07T18:19:10.989Z,-3.14
2023-02-07T18:21:27.341Z,-3.13
2023-02-07T18:23:44.213Z,-3.15
2023-02-07T18:26:02.669Z,-3.25
2023-02-07T18:28:20.519Z,-3.31
2023-02-07T18:30:39.142Z,-3.31
2023-02-07T18:32:56.863Z,-3.46
2023-02-07T18:35:18.855Z,-3.50
2023-02-07T18:37:37.098Z,-3.53
2023-02-07T18:39:54.940Z,-3.56
2023-02-07T18:45:07.494Z,-3.70
2023-02-07T18:47:39.404Z,-3.76
2023-02-07T18:49:27.671Z,-3.80
2023-02-07T18:51:43.853Z,-3.84
2023-02-07T19:03:26.599Z,-4.05
2023-02-07T19:14:59.488Z,-4.26
2023-02-07T19:19:38.973Z,-4.33
2023-02-07T19:31:07.058Z,-4.38
2023-02-07T19:33:18.730Z,-4.33
2023-02-07T19:35:35.800Z,-4.29
2023-02-07T19:38:17.547Z,-4.37
2023-02-07T19:40:33.310Z,-4.57
2023-02-07T19:43:10.326Z,-4.58
2023-02-07T20:00:30.737Z,-4.75
2023-02-07T20:02:45.785Z,-4.77
2023-02-07T20:05:01.344Z,-4.76
2023-02-07T20:07:26.313Z,-4.75
2023-02-07T20:10:00.515Z,-4.69
2023-02-07T20:11:52.573Z,-4.59
2023-02-07T20:14:50.247Z,-4.57
2023-02-07T20:16:27.116Z,-4.69
2023-02-07T20:20:14.843Z,-4.71
2023-02-07T20:24:16.379Z,-4.73
2023-02-07T20:25:58.055Z,-4.79
2023-02-07T20:28:15.720Z,-4.85
2023-02-07T20:30:30.261Z,-4.80
2023-02-07T20:32:48.396Z,-4.83
2023-02-07T20:35:01.570Z,-4.75
2023-02-07T20:37:17.368Z,-4.75
2023-02-07T20:39:35.461Z,-4.91
2023-02-07T20:41:51.058Z,-4.89
2023-02-07T20:44:06.639Z,-4.93
2023-02-07T20:46:18.771Z,-4.97
2023-02-07T20:48:34.380Z,-5.07
2023-02-07T20:50:52.433Z,-5.17
2023-02-07T20:53:08.007Z,-5.14
2023-02-07T20:55:22.730Z,-5.19
2023-02-07T20:57:38.856Z,-5.22
2023-02-07T21:00:50.173Z,-5.19
2023-02-07T21:03:02.040Z,-5.23
2023-02-07T21:05:15.490Z,-5.31
2023-02-07T21:07:28.951Z,-5.30
2023-02-07T21:09:42.056Z,-5.34
2023-02-07T21:11:55.819Z,-5.38
2023-02-07T21:14:11.269Z,-5.38
2023-02-07T21:16:26.951Z,-5.40
2023-02-07T21:18:51.148Z,-5.38
2023-02-07T21:21:05.765Z,-5.38
2023-02-07T21:23:19.252Z,-5.55
2023-02-07T21:25:33.819Z,-5.58
2023-02-07T21:27:52.034Z,-5.49
2023-02-07T21:30:07.548Z,-5.37
2023-02-07T21:32:19.678Z,-5.44
2023-02-07T21:34:33.314Z,-5.44
2023-02-07T21:36:46.908Z,-5.43
2023-02-07T21:38:58.988Z,-5.45
2023-02-07T21:41:12.587Z,-5.43
2023-02-07T21:43:28.205Z,-5.49
2023-02-07T21:45:42.097Z,-5.59
2023-02-07T21:47:55.773Z,-5.63
2023-02-07T21:50:09.380Z,-5.69
2023-02-07T21:52:22.954Z,-5.67
2023-02-07T21:54:36.581Z,-5.69
2023-02-07T21:56:52.729Z,-5.67
2023-02-07T21:59:05.777Z,-5.73
2023-02-07T22:01:21.407Z,-5.82
2023-02-07T22:03:36.932Z,-5.83
2023-02-07T22:05:50.028Z,-5.88
2023-02-07T22:08:03.686Z,-5.84
2023-02-07T22:10:15.916Z,-5.82
2023-02-07T22:12:29.444Z,-5.88
2023-02-07T22:14:45.068Z,-5.84
2023-02-07T22:17:00.679Z,-5.84
2023-02-07T22:19:16.185Z,-5.92
2023-02-07T22:21:28.281Z,-5.88
2023-02-07T22:23:43.905Z,-5.87
2023-02-07T22:25:59.441Z,-5.94
2023-02-07T22:28:11.596Z,-5.94
2023-02-07T22:30:25.214Z,-6.06
2023-02-07T22:32:38.782Z,-6.08
2023-02-07T22:34:51.021Z,-6.02
2023-02-07T22:37:02.969Z,-6.00
2023-02-07T22:39:16.660Z,-5.92
2023-02-07T22:41:29.883Z,-5.90
2023-02-07T22:43:45.308Z,-5.95
2023-02-07T22:45:59.252Z,-5.94
2023-02-07T22:48:14.823Z,-5.84
2023-02-07T22:50:28.760Z,-5.80
2023-02-07T22:52:42.303Z,-5.79
2023-02-07T22:54:58.025Z,-5.88
2023-02-07T22:57:13.602Z,-5.95
2023-02-07T22:59:27.126Z,-5.94
2023-02-07T23:01:40.754Z,-5.94
2023-02-07T23:03:56.409Z,-6.06
2023-02-07T23:06:11.981Z,-6.08
2023-02-07T23:08:27.558Z,-6.13
2023-02-07T23:10:43.128Z,-6.13
2023-02-07T23:12:56.512Z,-6.16
2023-02-07T23:15:12.108Z,-6.26
2023-02-07T23:17:26.742Z,-6.27
2023-02-07T23:19:39.850Z,-6.21
2023-02-07T23:21:55.429Z,-6.31
2023-02-07T23:24:12.954Z,-6.31
2023-02-07T23:26:27.750Z,-6.27
2023-02-07T23:28:43.218Z,-6.19
2023-02-07T23:30:56.887Z,-6.26
2023-02-07T23:33:12.470Z,-6.30
2023-02-07T23:35:27.978Z,-6.24
2023-02-07T23:37:43.687Z,-6.29
2023-02-07T23:39:59.214Z,-6.40
2023-02-07T23:42:14.811Z,-6.45
2023-02-07T23:44:30.385Z,-6.44
2023-02-07T23:46:45.934Z,-6.48
2023-02-07T23:49:01.559Z,-6.47
2023-02-07T23:51:15.124Z,-6.48
2023-02-07T23:53:30.754Z,-6.51
2023-02-07T23:55:48.826Z,-6.51
2023-02-07T23:58:04.520Z,-6.58
